Riverton, WV (26814)

6:25 AM EDT on March 28, 2015 (GMT -0400)
Buck Ridges, Franklin Town Mountain | | Change Station
CLOSE
Current Station
Personal Weather Station
Location: Franklin, WV
Elevation: 2753 ft
Nearby Weather Stations

Elev 2753 ft 38.65 °N, 79.30 °W | Updated 8 seconds ago

Snow
Snow
18.3 °F
Feels Like 18 °F
N
0.2
Wind Variable Wind from SW
Gusts 2.5 mph

Today
High -- | Low -- °F
--% Chance of Precip.
Yesterday
High -- | Low -- °F
Precip. -- in
7:09 AM 7:37 PM
First Quarter, 61% visible
Pressure 29.95 in
Visibility 2.0 miles
Clouds Overcast 1900 ft
Windchill 18 °F
Dew Point 6 °F
Humidity 57%
Rainfall 0.00 in
Snow Depth Not available.
UV 0.0 out of 12
Pollen 6.20 out of 12
Air Quality Not available.
Flu Activity Not available.
SPECI KEKN 281017Z AUTO 34012G17KT 2SM -SN OVC019 M08/M12 A2995 RMK AO2 P0000 T10781117 TSNO

More Conditions Fewer Conditions

Pressure 29.95 in
Visibility 2.0 miles
Clouds Overcast 1900 ft
Windchill 18 °F
Dew Point 6 °F
Humidity 57%
Rainfall 0.00 in
Snow Depth Not available.
UV 0.0 out of 12
Pollen 6.20 out of 12
Air Quality Not available.
Flu Activity Not available.
SPECI KEKN 281017Z AUTO 34012G17KT 2SM -SN OVC019 M08/M12 A2995 RMK AO2 P0000 T10781117 TSNO

More Conditions Fewer Conditions

10-Day Weather Forecast

Almanac

Astronomy

Mar. 28, 2015 Rise Set
Actual Time
Civil Twilight
Nautical Twilight
Astronomical Twilight
Moon
Length of Visible Light
Length of Day
Tomorrow will be .
, % of the Moon is Illuminated

Today's Extremes

State Highs State Lows

Community

WunderPhotos

Upload Photos

1,808,946 photos uploaded!

WunderBlogs® & News

Nearby

Air Quality

  Air Quality AQ Index Pollutant
Not available.

Snow Depth

Station Depth Elevation

Earthquake Activity

City Distance Mag. Time & Date
Minimum magnitude displayed is 2.5.

Coastal Water Temperatures

Place Temperature

Stations

Nearby Weather Stations

Station Location Temp. Windchill Dew Point Humidity Wind Precip. Elev Updated Type